This demonstration page uses our WeatherBlox Daily Observations layout. Learn more.

Left ArrowRight Arrow

39.92423, -83.80882

Hourly Observations for July 11, 2022

Temp ( °F °C ) Dew Point ( °F °C ) Humidity (%) Winds ( mph kmh ) Pressure ( in mb ) Visibility ( mi km ) Precip ( " mm )
12:56 am 00:56 Clear 64 18 N/A N/A Calm 29.97 1015 10 16 0.00 0.00
1:56 am 01:56 Clear 64 18 N/A N/A Calm 29.94 1014 10 16 0.00 0.00
2:56 am 02:56 Clear N/A N/A N/A NNW 3 6 N/A 10 16 0.00 0.00
3:56 am 03:56 Clear N/A N/A N/A Calm N/A 10 16 0.00 0.00
4:56 am 04:56 Clear N/A N/A N/A Calm N/A 10 16 0.00 0.00
5:56 am 05:56 Clear N/A N/A N/A Calm N/A 9 14 0.00 0.00
6:56 am 06:56 Sunny N/A N/A N/A SSE 5 7 N/A 10 16 0.01 0.25
7:56 am 07:56 Sunny 70 21 N/A N/A SSW 3 6 29.95 1014 10 16 0.00 0.00
8:56 am 08:56 Sunny 74 23.3 70 21.1 88 88 SW 6 9 29.94 1014 10 16 0.00 0.00
9:56 am 09:56 Sunny 77 25 70 21.1 79 79 SW 8 13 29.94 1014 10 16 0.00 0.00
10:56 am 10:56 Mostly Sunny 81 27.2 70 21.1 69 69 WSW 8 13 29.96 1014 10 16 0.00 0.00
11:56 am 11:56 Mostly Cloudy 81 27.2 69 20.6 67 67 WSW 13 20 29.94 1014 10 16 0.00 0.00
12:56 pm 12:56 Mostly Cloudy 82 27.8 68 20 63 63 WSW 8 13 29.93 1014 10 16 0.00 0.00
1:56 pm 13:56 Mostly Cloudy 83 28.3 68 20 61 61 WSW 14 22 29.93 1013 10 16 0.00 0.00
2:56 pm 14:56 Sunny 86 30 66 18.9 51 51 WSW 10 17 29.86 1011 10 16 0.00 0.00
3:56 pm 15:56 Sunny 84 28.9 68 20 59 59 SW 8 13 29.84 1010 10 16 0.00 0.00
4:56 pm 16:56 Sunny 84 28.9 67 19.4 57 57 SSW 10 17 29.79 1009 10 16 0.01 0.25
5:56 pm 17:56 Sunny 84 28.9 70 21.1 63 63 SSW 10 17 29.80 1009 10 16 0.01 0.25
6:56 pm 18:56 Sunny 82 27.8 69 20.6 65 65 SSW 8 13 29.78 1009 10 16 0.00 0.00
7:56 pm 19:56 Sunny 81 27.2 69 20.6 67 67 SW 9 15 29.81 1010 10 16 0.00 0.00
8:56 pm 20:56 Sunny 76 24.4 74 23.3 94 94 WSW 5 7 29.81 1009 10 16 0.01 0.25
9:56 pm 21:56 Clear 75 23.9 74 23.3 96 96 SSW 3 6 29.83 1010 10 16 0.00 0.00
10:56 pm 22:56 Clear 75 23.9 71 21.7 88 88 SW 5 7 29.83 1010 10 16 0.00 0.00
11:56 pm 23:56 Clear 72 22.2 72 22.2 100 100 SW 7 11 29.83 1010 10 16 0.00 0.00

Powered by AerisWeather